sensor_id;sensor_type;location;lat;lon;timestamp;temperature;humidity
12849;DHT22;6493;50.928;7.172;2023-05-29T00:03:19;13.70;43.00
12849;DHT22;6493;50.928;7.172;2023-05-29T00:08:24;13.50;42.30
12849;DHT22;6493;50.928;7.172;2023-05-29T00:13:27;13.50;42.80
12849;DHT22;6493;50.928;7.172;2023-05-29T00:18:31;13.40;43.00
12849;DHT22;6493;50.928;7.172;2023-05-29T00:23:36;13.30;42.60
12849;DHT22;6493;50.928;7.172;2023-05-29T00:28:40;13.20;43.60
12849;DHT22;6493;50.928;7.172;2023-05-29T00:33:44;13.20;43.30
12849;DHT22;6493;50.928;7.172;2023-05-29T00:38:49;13.20;42.60
12849;DHT22;6493;50.928;7.172;2023-05-29T00:43:52;13.20;42.60
12849;DHT22;6493;50.928;7.172;2023-05-29T00:48:56;13.20;42.50
12849;DHT22;6493;50.928;7.172;2023-05-29T00:54:01;13.20;43.10
12849;DHT22;6493;50.928;7.172;2023-05-29T00:59:05;13.20;43.00
12849;DHT22;6493;50.928;7.172;2023-05-29T01:04:09;13.20;42.40
12849;DHT22;6493;50.928;7.172;2023-05-29T01:09:17;13.20;42.40
12849;DHT22;6493;50.928;7.172;2023-05-29T01:14:25;13.20;42.40
12849;DHT22;6493;50.928;7.172;2023-05-29T01:19:57;13.20;42.60
12849;DHT22;6493;50.928;7.172;2023-05-29T01:25:11;13.10;43.00
12849;DHT22;6493;50.928;7.172;2023-05-29T01:30:22;13.10;42.80
12849;DHT22;6493;50.928;7.172;2023-05-29T01:35:27;13.00;42.50
12849;DHT22;6493;50.928;7.172;2023-05-29T01:40:31;13.00;42.50
12849;DHT22;6493;50.928;7.172;2023-05-29T01:45:36;12.90;42.50
12849;DHT22;6493;50.928;7.172;2023-05-29T01:50:42;12.80;42.60
12849;DHT22;6493;50.928;7.172;2023-05-29T01:55:46;12.80;42.60
12849;DHT22;6493;50.928;7.172;2023-05-29T02:00:51;12.70;42.80
12849;DHT22;6493;50.928;7.172;2023-05-29T02:05:57;12.60;42.80
12849;DHT22;6493;50.928;7.172;2023-05-29T02:11:01;12.60;42.90
12849;DHT22;6493;50.928;7.172;2023-05-29T02:16:06;12.40;42.80
12849;DHT22;6493;50.928;7.172;2023-05-29T02:21:09;12.40;43.00
12849;DHT22;6493;50.928;7.172;2023-05-29T02:26:13;12.30;43.40
12849;DHT22;6493;50.928;7.172;2023-05-29T02:31:20;12.20;42.90
12849;DHT22;6493;50.928;7.172;2023-05-29T02:36:23;12.00;43.10
12849;DHT22;6493;50.928;7.172;2023-05-29T02:41:27;11.90;43.10
12849;DHT22;6493;50.928;7.172;2023-05-29T02:46:34;11.80;43.50
12849;DHT22;6493;50.928;7.172;2023-05-29T02:51:38;11.70;43.10
12849;DHT22;6493;50.928;7.172;2023-05-29T02:56:41;11.60;43.10
12849;DHT22;6493;50.928;7.172;2023-05-29T03:01:47;11.50;43.80
12849;DHT22;6493;50.928;7.172;2023-05-29T03:06:51;11.30;44.00
12849;DHT22;6493;50.928;7.172;2023-05-29T03:11:55;11.20;43.60
12849;DHT22;6493;50.928;7.172;2023-05-29T03:17:00;11.10;43.80
12849;DHT22;6493;50.928;7.172;2023-05-29T03:22:04;11.00;43.60
12849;DHT22;6493;50.928;7.172;2023-05-29T03:27:10;10.90;43.70
12849;DHT22;6493;50.928;7.172;2023-05-29T03:32:15;10.90;43.80
12849;DHT22;6493;50.928;7.172;2023-05-29T03:37:19;10.80;43.70
12849;DHT22;6493;50.928;7.172;2023-05-29T03:42:22;10.70;43.60
12849;DHT22;6493;50.928;7.172;2023-05-29T03:47:29;10.70;43.80
12849;DHT22;6493;50.928;7.172;2023-05-29T03:52:33;10.60;44.10
12849;DHT22;6493;50.928;7.172;2023-05-29T03:57:37;10.50;44.10
12849;DHT22;6493;50.928;7.172;2023-05-29T04:02:42;10.50;44.20
12849;DHT22;6493;50.928;7.172;2023-05-29T04:07:45;10.50;44.60
12849;DHT22;6493;50.928;7.172;2023-05-29T04:12:50;10.60;44.80
12849;DHT22;6493;50.928;7.172;2023-05-29T04:17:55;10.90;45.60
12849;DHT22;6493;50.928;7.172;2023-05-29T04:22:59;11.30;45.80
12849;DHT22;6493;50.928;7.172;2023-05-29T04:28:03;11.90;46.70
12849;DHT22;6493;50.928;7.172;2023-05-29T04:33:09;12.30;46.20
12849;DHT22;6493;50.928;7.172;2023-05-29T04:38:18;12.90;46.50
12849;DHT22;6493;50.928;7.172;2023-05-29T04:43:28;13.50;46.60
12849;DHT22;6493;50.928;7.172;2023-05-29T04:48:42;14.20;46.80
12849;DHT22;6493;50.928;7.172;2023-05-29T04:53:46;14.90;46.90
12849;DHT22;6493;50.928;7.172;2023-05-29T04:58:50;15.50;46.90
12849;DHT22;6493;50.928;7.172;2023-05-29T05:03:56;16.10;46.60
12849;DHT22;6493;50.928;7.172;2023-05-29T05:09:00;16.60;46.50
12849;DHT22;6493;50.928;7.172;2023-05-29T05:14:05;17.20;46.60
12849;DHT22;6493;50.928;7.172;2023-05-29T05:19:10;17.70;46.40
12849;DHT22;6493;50.928;7.172;2023-05-29T05:24:15;18.20;46.00
12849;DHT22;6493;50.928;7.172;2023-05-29T05:29:19;18.60;45.70
12849;DHT22;6493;50.928;7.172;2023-05-29T05:34:24;18.80;45.00
12849;DHT22;6493;50.928;7.172;2023-05-29T05:39:28;19.00;44.80
12849;DHT22;6493;50.928;7.172;2023-05-29T05:44:32;19.30;44.60
12849;DHT22;6493;50.928;7.172;2023-05-29T05:49:43;19.40;43.80
12849;DHT22;6493;50.928;7.172;2023-05-29T05:54:48;19.20;42.80
12849;DHT22;6493;50.928;7.172;2023-05-29T05:59:52;18.80;42.60
12849;DHT22;6493;50.928;7.172;2023-05-29T06:04:59;18.70;43.60
12849;DHT22;6493;50.928;7.172;2023-05-29T06:10:03;18.90;44.00
12849;DHT22;6493;50.928;7.172;2023-05-29T06:15:07;19.20;44.20
12849;DHT22;6493;50.928;7.172;2023-05-29T06:20:13;19.70;44.10
12849;DHT22;6493;50.928;7.172;2023-05-29T06:25:17;20.00;43.40
12849;DHT22;6493;50.928;7.172;2023-05-29T06:30:21;20.10;42.80
12849;DHT22;6493;50.928;7.172;2023-05-29T06:35:27;20.30;42.80
12849;DHT22;6493;50.928;7.172;2023-05-29T06:40:31;20.50;42.70
12849;DHT22;6493;50.928;7.172;2023-05-29T06:45:34;20.60;42.40
12849;DHT22;6493;50.928;7.172;2023-05-29T06:50:40;20.80;42.10
12849;DHT22;6493;50.928;7.172;2023-05-29T06:56:04;20.80;41.70
12849;DHT22;6493;50.928;7.172;2023-05-29T07:01:09;20.80;41.20
12849;DHT22;6493;50.928;7.172;2023-05-29T07:06:20;20.60;41.20
12849;DHT22;6493;50.928;7.172;2023-05-29T07:11:24;20.50;41.20
12849;DHT22;6493;50.928;7.172;2023-05-29T07:16:28;20.50;41.30
12849;DHT22;6493;50.928;7.172;2023-05-29T07:21:36;20.50;41.50
12849;DHT22;6493;50.928;7.172;2023-05-29T07:26:41;20.40;41.00
12849;DHT22;6493;50.928;7.172;2023-05-29T07:31:44;20.30;41.40
12849;DHT22;6493;50.928;7.172;2023-05-29T07:37:00;20.20;41.10
12849;DHT22;6493;50.928;7.172;2023-05-29T07:42:06;20.10;41.00
12849;DHT22;6493;50.928;7.172;2023-05-29T07:47:12;19.90;41.00
12849;DHT22;6493;50.928;7.172;2023-05-29T07:52:22;19.80;41.70
12849;DHT22;6493;50.928;7.172;2023-05-29T07:57:25;19.70;41.50
12849;DHT22;6493;50.928;7.172;2023-05-29T08:02:34;19.60;40.90
12849;DHT22;6493;50.928;7.172;2023-05-29T08:08:12;19.50;41.00
12849;DHT22;6493;50.928;7.172;2023-05-29T08:13:16;19.40;41.10
12849;DHT22;6493;50.928;7.172;2023-05-29T08:18:20;19.40;41.30
12849;DHT22;6493;50.928;7.172;2023-05-29T08:23:25;19.50;41.30
12849;DHT22;6493;50.928;7.172;2023-05-29T08:28:29;19.50;41.30
12849;DHT22;6493;50.928;7.172;2023-05-29T08:33:33;19.60;41.60
12849;DHT22;6493;50.928;7.172;2023-05-29T08:38:38;19.80;41.80
12849;DHT22;6493;50.928;7.172;2023-05-29T08:43:42;20.00;41.70
12849;DHT22;6493;50.928;7.172;2023-05-29T08:48:48;20.20;41.60
12849;DHT22;6493;50.928;7.172;2023-05-29T08:53:54;20.30;41.20
12849;DHT22;6493;50.928;7.172;2023-05-29T08:58:59;20.40;41.00
12849;DHT22;6493;50.928;7.172;2023-05-29T09:04:07;20.40;41.00
12849;DHT22;6493;50.928;7.172;2023-05-29T09:09:13;20.40;41.00
12849;DHT22;6493;50.928;7.172;2023-05-29T09:14:31;20.50;40.80
12849;DHT22;6493;50.928;7.172;2023-05-29T09:19:36;20.50;40.80
12849;DHT22;6493;50.928;7.172;2023-05-29T09:24:46;20.50;40.90
12849;DHT22;6493;50.928;7.172;2023-05-29T09:29:50;20.60;41.10
12849;DHT22;6493;50.928;7.172;2023-05-29T09:34:59;20.80;41.00
12849;DHT22;6493;50.928;7.172;2023-05-29T09:40:06;20.90;40.90
12849;DHT22;6493;50.928;7.172;2023-05-29T09:45:10;21.10;41.10
12849;DHT22;6493;50.928;7.172;2023-05-29T09:50:18;21.20;40.80
12849;DHT22;6493;50.928;7.172;2023-05-29T09:55:25;21.30;40.30
12849;DHT22;6493;50.928;7.172;2023-05-29T10:00:29;21.20;40.30
12849;DHT22;6493;50.928;7.172;2023-05-29T10:05:33;21.20;40.40
12849;DHT22;6493;50.928;7.172;2023-05-29T10:10:40;21.20;40.50
12849;DHT22;6493;50.928;7.172;2023-05-29T10:15:45;21.30;40.70
12849;DHT22;6493;50.928;7.172;2023-05-29T10:20:50;21.40;40.70
12849;DHT22;6493;50.928;7.172;2023-05-29T10:26:03;21.50;40.60
12849;DHT22;6493;50.928;7.172;2023-05-29T10:31:10;21.60;40.20
12849;DHT22;6493;50.928;7.172;2023-05-29T10:36:19;21.60;40.40
12849;DHT22;6493;50.928;7.172;2023-05-29T10:41:31;21.70;40.60
12849;DHT22;6493;50.928;7.172;2023-05-29T10:47:06;21.60;40.80
12849;DHT22;6493;50.928;7.172;2023-05-29T10:52:11;21.70;40.10
12849;DHT22;6493;50.928;7.172;2023-05-29T10:57:16;21.80;40.00
12849;DHT22;6493;50.928;7.172;2023-05-29T11:02:22;21.70;39.80
12849;DHT22;6493;50.928;7.172;2023-05-29T11:07:32;21.70;39.90
12849;DHT22;6493;50.928;7.172;2023-05-29T11:12:55;21.70;40.00
12849;DHT22;6493;50.928;7.172;2023-05-29T11:18:06;21.70;39.80
12849;DHT22;6493;50.928;7.172;2023-05-29T11:23:15;21.70;39.60
12849;DHT22;6493;50.928;7.172;2023-05-29T11:28:21;21.70;39.80
12849;DHT22;6493;50.928;7.172;2023-05-29T11:33:26;21.70;40.00
12849;DHT22;6493;50.928;7.172;2023-05-29T11:38:31;21.70;39.90
12849;DHT22;6493;50.928;7.172;2023-05-29T11:43:36;21.70;39.80
12849;DHT22;6493;50.928;7.172;2023-05-29T11:48:45;21.70;39.80
12849;DHT22;6493;50.928;7.172;2023-05-29T11:53:49;21.70;39.60
12849;DHT22;6493;50.928;7.172;2023-05-29T11:58:59;21.60;39.40
12849;DHT22;6493;50.928;7.172;2023-05-29T12:04:13;21.50;39.40
12849;DHT22;6493;50.928;7.172;2023-05-29T12:09:24;21.50;39.50
12849;DHT22;6493;50.928;7.172;2023-05-29T12:14:30;21.50;39.80
12849;DHT22;6493;50.928;7.172;2023-05-29T12:19:33;21.50;39.70
12849;DHT22;6493;50.928;7.172;2023-05-29T12:24:37;21.50;39.70
12849;DHT22;6493;50.928;7.172;2023-05-29T12:29:46;21.60;39.80
12849;DHT22;6493;50.928;7.172;2023-05-29T12:34:51;21.60;39.40
12849;DHT22;6493;50.928;7.172;2023-05-29T12:40:11;21.60;39.30
12849;DHT22;6493;50.928;7.172;2023-05-29T12:45:17;21.60;39.20
12849;DHT22;6493;50.928;7.172;2023-05-29T12:50:23;21.50;39.30
12849;DHT22;6493;50.928;7.172;2023-05-29T12:55:28;21.50;39.30
12849;DHT22;6493;50.928;7.172;2023-05-29T13:00:34;21.40;39.30
12849;DHT22;6493;50.928;7.172;2023-05-29T13:05:38;21.50;39.50
12849;DHT22;6493;50.928;7.172;2023-05-29T13:10:43;21.50;39.50
12849;DHT22;6493;50.928;7.172;2023-05-29T13:15:48;21.50;39.30
12849;DHT22;6493;50.928;7.172;2023-05-29T13:20:52;21.60;39.40
12849;DHT22;6493;50.928;7.172;2023-05-29T13:25:56;21.60;39.20
12849;DHT22;6493;50.928;7.172;2023-05-29T13:31:01;21.60;39.30
12849;DHT22;6493;50.928;7.172;2023-05-29T13:36:05;21.60;39.10
12849;DHT22;6493;50.928;7.172;2023-05-29T13:41:09;21.50;38.90
12849;DHT22;6493;50.928;7.172;2023-05-29T13:46:14;21.40;38.90
12849;DHT22;6493;50.928;7.172;2023-05-29T13:51:18;21.30;38.80
12849;DHT22;6493;50.928;7.172;2023-05-29T13:56:21;21.20;38.90
12849;DHT22;6493;50.928;7.172;2023-05-29T14:01:26;21.20;39.00
12849;DHT22;6493;50.928;7.172;2023-05-29T14:06:30;21.20;39.60
12849;DHT22;6493;50.928;7.172;2023-05-29T14:11:34;21.20;39.00
12849;DHT22;6493;50.928;7.172;2023-05-29T14:16:40;21.20;39.40
12849;DHT22;6493;50.928;7.172;2023-05-29T14:21:45;21.30;38.90
12849;DHT22;6493;50.928;7.172;2023-05-29T14:26:48;21.30;38.70
12849;DHT22;6493;50.928;7.172;2023-05-29T14:31:54;21.30;38.50
12849;DHT22;6493;50.928;7.172;2023-05-29T14:36:58;21.20;38.20
12849;DHT22;6493;50.928;7.172;2023-05-29T14:42:01;21.10;38.20
12849;DHT22;6493;50.928;7.172;2023-05-29T14:47:07;20.90;38.50
12849;DHT22;6493;50.928;7.172;2023-05-29T14:52:10;20.90;38.10
12849;DHT22;6493;50.928;7.172;2023-05-29T14:57:14;20.70;38.20
12849;DHT22;6493;50.928;7.172;2023-05-29T15:02:19;20.70;38.50
12849;DHT22;6493;50.928;7.172;2023-05-29T15:07:23;20.60;38.40
12849;DHT22;6493;50.928;7.172;2023-05-29T15:12:27;20.60;38.30
12849;DHT22;6493;50.928;7.172;2023-05-29T15:17:32;20.50;38.30
12849;DHT22;6493;50.928;7.172;2023-05-29T15:22:35;20.40;38.40
12849;DHT22;6493;50.928;7.172;2023-05-29T15:27:39;20.30;38.40
12849;DHT22;6493;50.928;7.172;2023-05-29T15:32:45;20.30;38.40
12849;DHT22;6493;50.928;7.172;2023-05-29T15:37:49;20.20;38.30
12849;DHT22;6493;50.928;7.172;2023-05-29T15:42:53;20.10;38.50
12849;DHT22;6493;50.928;7.172;2023-05-29T15:47:57;20.10;38.40
12849;DHT22;6493;50.928;7.172;2023-05-29T15:53:01;20.10;38.50
12849;DHT22;6493;50.928;7.172;2023-05-29T15:58:05;20.00;38.40
12849;DHT22;6493;50.928;7.172;2023-05-29T16:03:10;20.00;38.50
12849;DHT22;6493;50.928;7.172;2023-05-29T16:08:14;19.90;38.40
12849;DHT22;6493;50.928;7.172;2023-05-29T16:13:17;19.90;38.40
12849;DHT22;6493;50.928;7.172;2023-05-29T16:18:22;19.80;38.50
12849;DHT22;6493;50.928;7.172;2023-05-29T16:23:26;19.70;38.30
12849;DHT22;6493;50.928;7.172;2023-05-29T16:28:29;19.60;38.30
12849;DHT22;6493;50.928;7.172;2023-05-29T16:33:35;19.50;38.40
12849;DHT22;6493;50.928;7.172;2023-05-29T16:38:39;19.40;38.50
12849;DHT22;6493;50.928;7.172;2023-05-29T16:43:42;19.20;38.40
12849;DHT22;6493;50.928;7.172;2023-05-29T16:48:47;19.10;38.50
12849;DHT22;6493;50.928;7.172;2023-05-29T16:53:51;19.10;39.20
12849;DHT22;6493;50.928;7.172;2023-05-29T16:58:54;19.00;38.70
12849;DHT22;6493;50.928;7.172;2023-05-29T17:03:59;19.00;38.70
12849;DHT22;6493;50.928;7.172;2023-05-29T17:09:03;18.90;38.60
12849;DHT22;6493;50.928;7.172;2023-05-29T17:14:07;18.70;38.60
12849;DHT22;6493;50.928;7.172;2023-05-29T17:19:12;18.50;38.50
12849;DHT22;6493;50.928;7.172;2023-05-29T17:24:15;18.30;38.60
12849;DHT22;6493;50.928;7.172;2023-05-29T17:29:19;18.20;38.80
12849;DHT22;6493;50.928;7.172;2023-05-29T17:34:24;18.10;38.90
12849;DHT22;6493;50.928;7.172;2023-05-29T17:39:28;18.10;39.00
12849;DHT22;6493;50.928;7.172;2023-05-29T17:44:31;18.00;38.90
12849;DHT22;6493;50.928;7.172;2023-05-29T17:49:36;18.00;39.10
12849;DHT22;6493;50.928;7.172;2023-05-29T17:54:40;17.90;39.00
12849;DHT22;6493;50.928;7.172;2023-05-29T17:59:44;17.80;38.90
12849;DHT22;6493;50.928;7.172;2023-05-29T18:04:49;17.70;38.90
12849;DHT22;6493;50.928;7.172;2023-05-29T18:09:53;17.60;38.90
12849;DHT22;6493;50.928;7.172;2023-05-29T18:14:57;17.50;38.90
12849;DHT22;6493;50.928;7.172;2023-05-29T18:20:02;17.40;39.50
12849;DHT22;6493;50.928;7.172;2023-05-29T18:25:07;17.30;39.00
12849;DHT22;6493;50.928;7.172;2023-05-29T18:30:13;17.20;39.00
12849;DHT22;6493;50.928;7.172;2023-05-29T18:35:18;17.10;38.90
12849;DHT22;6493;50.928;7.172;2023-05-29T18:40:22;17.00;38.90
12849;DHT22;6493;50.928;7.172;2023-05-29T18:45:25;17.00;38.90
12849;DHT22;6493;50.928;7.172;2023-05-29T18:50:30;16.90;38.90
12849;DHT22;6493;50.928;7.172;2023-05-29T18:55:34;16.80;39.50
12849;DHT22;6493;50.928;7.172;2023-05-29T19:00:38;16.70;38.90
12849;DHT22;6493;50.928;7.172;2023-05-29T19:05:43;16.50;38.80
12849;DHT22;6493;50.928;7.172;2023-05-29T19:10:47;16.40;38.80
12849;DHT22;6493;50.928;7.172;2023-05-29T19:15:51;16.30;38.70
12849;DHT22;6493;50.928;7.172;2023-05-29T19:20:56;16.20;38.40
12849;DHT22;6493;50.928;7.172;2023-05-29T19:26:00;16.10;38.40
12849;DHT22;6493;50.928;7.172;2023-05-29T19:31:03;16.00;38.10
12849;DHT22;6493;50.928;7.172;2023-05-29T19:36:09;15.90;38.10
12849;DHT22;6493;50.928;7.172;2023-05-29T19:41:12;15.70;37.80
12849;DHT22;6493;50.928;7.172;2023-05-29T19:46:16;15.60;37.70
12849;DHT22;6493;50.928;7.172;2023-05-29T19:51:21;15.50;37.60
12849;DHT22;6493;50.928;7.172;2023-05-29T19:56:24;15.40;37.30
12849;DHT22;6493;50.928;7.172;2023-05-29T20:01:29;15.30;37.30
12849;DHT22;6493;50.928;7.172;2023-05-29T20:06:34;15.30;37.30
12849;DHT22;6493;50.928;7.172;2023-05-29T20:11:39;15.20;37.90
12849;DHT22;6493;50.928;7.172;2023-05-29T20:16:43;15.10;37.80
12849;DHT22;6493;50.928;7.172;2023-05-29T20:21:48;15.00;37.20
12849;DHT22;6493;50.928;7.172;2023-05-29T20:26:52;15.00;37.10
12849;DHT22;6493;50.928;7.172;2023-05-29T20:31:56;14.90;37.10
12849;DHT22;6493;50.928;7.172;2023-05-29T20:37:01;14.90;37.20
12849;DHT22;6493;50.928;7.172;2023-05-29T20:42:06;14.80;37.10
12849;DHT22;6493;50.928;7.172;2023-05-29T20:47:10;14.70;37.60
12849;DHT22;6493;50.928;7.172;2023-05-29T20:52:15;14.70;37.10
12849;DHT22;6493;50.928;7.172;2023-05-29T20:57:19;14.60;37.10
12849;DHT22;6493;50.928;7.172;2023-05-29T21:02:23;14.50;37.00
12849;DHT22;6493;50.928;7.172;2023-05-29T21:07:28;14.40;37.00
12849;DHT22;6493;50.928;7.172;2023-05-29T21:12:37;14.40;37.00
12849;DHT22;6493;50.928;7.172;2023-05-29T21:17:41;14.30;37.00
12849;DHT22;6493;50.928;7.172;2023-05-29T21:22:46;14.20;36.90
12849;DHT22;6493;50.928;7.172;2023-05-29T21:27:50;14.10;36.90
12849;DHT22;6493;50.928;7.172;2023-05-29T21:32:54;14.10;37.50
12849;DHT22;6493;50.928;7.172;2023-05-29T21:37:59;13.90;36.70
12849;DHT22;6493;50.928;7.172;2023-05-29T21:43:03;13.90;36.70
12849;DHT22;6493;50.928;7.172;2023-05-29T21:48:06;13.80;37.40
12849;DHT22;6493;50.928;7.172;2023-05-29T21:53:11;13.70;36.70
12849;DHT22;6493;50.928;7.172;2023-05-29T21:58:17;13.60;36.60
12849;DHT22;6493;50.928;7.172;2023-05-29T22:03:22;13.50;36.60
12849;DHT22;6493;50.928;7.172;2023-05-29T22:08:39;13.40;36.50
12849;DHT22;6493;50.928;7.172;2023-05-29T22:13:43;13.40;36.50
12849;DHT22;6493;50.928;7.172;2023-05-29T22:18:47;13.30;36.50
12849;DHT22;6493;50.928;7.172;2023-05-29T22:24:09;13.20;36.50
12849;DHT22;6493;50.928;7.172;2023-05-29T22:29:13;13.10;36.40
12849;DHT22;6493;50.928;7.172;2023-05-29T22:34:16;13.10;36.50
12849;DHT22;6493;50.928;7.172;2023-05-29T22:39:22;13.00;36.40
12849;DHT22;6493;50.928;7.172;2023-05-29T22:44:25;12.90;36.90
12849;DHT22;6493;50.928;7.172;2023-05-29T22:49:29;12.80;36.40
12849;DHT22;6493;50.928;7.172;2023-05-29T22:54:34;12.70;36.40
12849;DHT22;6493;50.928;7.172;2023-05-29T22:59:38;12.60;36.40
12849;DHT22;6493;50.928;7.172;2023-05-29T23:04:42;12.50;36.40
12849;DHT22;6493;50.928;7.172;2023-05-29T23:09:49;12.40;36.30
12849;DHT22;6493;50.928;7.172;2023-05-29T23:14:53;12.40;36.40
12849;DHT22;6493;50.928;7.172;2023-05-29T23:19:56;12.30;36.40
12849;DHT22;6493;50.928;7.172;2023-05-29T23:25:02;12.20;36.40
12849;DHT22;6493;50.928;7.172;2023-05-29T23:30:07;12.10;36.40
12849;DHT22;6493;50.928;7.172;2023-05-29T23:35:11;12.00;36.40
12849;DHT22;6493;50.928;7.172;2023-05-29T23:40:16;12.00;36.40
12849;DHT22;6493;50.928;7.172;2023-05-29T23:45:20;11.90;36.40
12849;DHT22;6493;50.928;7.172;2023-05-29T23:50:24;11.80;36.40
12849;DHT22;6493;50.928;7.172;2023-05-29T23:55:30;11.70;36.30
